createdAt,value
2019-04-16T00:01:26.532Z,4.24
2019-04-16T00:03:58.083Z,4.16
2019-04-16T00:06:35.659Z,4.14
2019-04-16T00:09:11.271Z,4.07
2019-04-16T00:11:42.837Z,4.06
2019-04-16T00:14:20.482Z,3.97
2019-04-16T00:16:50.491Z,3.81
2019-04-16T00:19:20.449Z,3.88
2019-04-16T00:22:04.020Z,3.71
2019-04-16T00:24:35.554Z,3.74
2019-04-16T00:27:05.622Z,3.76
2019-04-16T00:29:35.589Z,3.79
2019-04-16T00:32:09.177Z,3.72
2019-04-16T00:34:38.857Z,3.71
2019-04-16T00:37:08.843Z,3.62
2019-04-16T00:39:38.817Z,3.57
2019-04-16T00:42:08.931Z,3.56
2019-04-16T00:44:38.917Z,3.56
2019-04-16T00:47:08.918Z,3.54
2019-04-16T00:49:38.891Z,3.48
2019-04-16T00:52:08.888Z,3.41
2019-04-16T00:54:39.316Z,3.36
2019-04-16T00:57:10.551Z,3.34
2019-04-16T00:59:40.529Z,3.37
2019-04-16T01:02:10.607Z,3.27
2019-04-16T01:04:40.582Z,3.23
2019-04-16T01:07:10.526Z,3.17
2019-04-16T01:09:40.797Z,3.14
2019-04-16T01:12:10.737Z,3.17
2019-04-16T01:14:41.014Z,3.15
2019-04-16T01:17:10.960Z,3.12
2019-04-16T01:19:41.814Z,3.08
2019-04-16T01:22:15.733Z,3.07
2019-04-16T01:24:43.603Z,3.07
2019-04-16T01:27:15.305Z,3.05
2019-04-16T01:29:45.384Z,3.07
2019-04-16T01:32:33.134Z,2.98
2019-04-16T01:35:04.670Z,2.94
2019-04-16T01:37:36.173Z,2.90
2019-04-16T01:40:09.235Z,2.85
2019-04-16T01:42:39.229Z,2.79
2019-04-16T01:45:09.197Z,2.70
2019-04-16T01:47:39.130Z,2.70
2019-04-16T01:50:12.970Z,2.70
2019-04-16T01:52:40.838Z,2.69
2019-04-16T01:55:11.148Z,2.66
2019-04-16T01:57:41.040Z,2.61
2019-04-16T02:00:12.327Z,2.52
2019-04-16T02:02:43.468Z,2.53
2019-04-16T02:05:14.030Z,2.47
2019-04-16T02:07:44.152Z,2.40
2019-04-16T02:10:14.419Z,2.38
2019-04-16T02:12:44.556Z,2.34
2019-04-16T02:15:14.900Z,2.36
2019-04-16T02:17:44.833Z,2.29
2019-04-16T02:20:14.796Z,2.28
2019-04-16T02:22:45.265Z,2.26
2019-04-16T02:25:19.015Z,2.29
2019-04-16T02:27:47.405Z,2.28
2019-04-16T02:30:17.398Z,2.15
2019-04-16T02:32:47.416Z,2.15
2019-04-16T02:35:18.277Z,2.13
2019-04-16T02:37:48.233Z,2.11
2019-04-16T02:40:19.003Z,2.11
2019-04-16T02:42:49.261Z,2.10
2019-04-16T02:45:23.147Z,2.12
2019-04-16T02:47:50.979Z,2.10
2019-04-16T02:50:30.638Z,2.02
2019-04-16T02:52:58.533Z,2.01
2019-04-16T02:55:30.211Z,1.91
2019-04-16T02:58:02.359Z,1.86
2019-04-16T03:00:50.852Z,1.86
2019-04-16T03:03:24.923Z,1.82
2019-04-16T03:05:55.611Z,1.82
2019-04-16T03:08:25.582Z,1.84
2019-04-16T03:10:55.557Z,1.85
2019-04-16T03:13:26.325Z,1.81
2019-04-16T03:16:07.708Z,1.74
2019-04-16T03:18:39.356Z,1.75
2019-04-16T03:21:09.322Z,1.70
2019-04-16T03:23:39.369Z,1.70
2019-04-16T03:26:09.374Z,1.63
2019-04-16T03:28:39.342Z,1.65
2019-04-16T03:31:14.865Z,1.59
2019-04-16T03:33:48.610Z,1.58
2019-04-16T03:36:13.766Z,1.51
2019-04-16T03:38:43.757Z,1.47
2019-04-16T03:41:13.758Z,1.42
2019-04-16T03:43:43.728Z,1.42
2019-04-16T03:46:14.197Z,1.43
2019-04-16T03:48:44.400Z,1.49
2019-04-16T03:51:14.393Z,1.51
2019-04-16T03:53:46.449Z,1.50
2019-04-16T03:56:16.026Z,1.48
2019-04-16T03:58:45.996Z,1.47
2019-04-16T04:01:15.973Z,1.43
2019-04-16T04:03:45.961Z,1.47
2019-04-16T04:06:15.939Z,1.50
2019-04-16T04:08:48.296Z,1.50
2019-04-16T04:11:17.574Z,1.48
2019-04-16T04:13:50.053Z,1.46
2019-04-16T04:16:19.425Z,1.52
2019-04-16T04:18:49.403Z,1.65
2019-04-16T04:21:22.309Z,1.69
2019-04-16T04:23:51.071Z,1.69
2019-04-16T04:26:21.163Z,1.71
2019-04-16T04:28:51.523Z,1.90
2019-04-16T04:31:22.689Z,2.41
2019-04-16T04:33:52.766Z,2.67
2019-04-16T04:36:26.435Z,2.36
2019-04-16T04:38:54.442Z,2.17
2019-04-16T04:41:24.452Z,2.16
2019-04-16T04:43:54.432Z,2.24
2019-04-16T04:46:24.374Z,2.19
2019-04-16T04:48:55.611Z,2.11
2019-04-16T04:51:25.978Z,2.14
2019-04-16T04:53:55.952Z,2.19
2019-04-16T04:56:27.981Z,2.28
2019-04-16T04:58:57.587Z,2.32
2019-04-16T05:01:27.530Z,2.42
2019-04-16T05:04:02.047Z,2.50
2019-04-16T05:06:38.809Z,2.55
2019-04-16T05:09:08.778Z,2.56
2019-04-16T05:11:38.721Z,2.74
2019-04-16T05:14:08.710Z,2.90
2019-04-16T05:16:38.732Z,2.98
2019-04-16T05:19:13.626Z,2.99
2019-04-16T05:21:40.362Z,3.19
2019-04-16T05:24:10.338Z,3.20
2019-04-16T05:26:40.286Z,3.26
2019-04-16T05:29:17.514Z,3.26
2019-04-16T05:31:44.703Z,3.36
2019-04-16T05:34:17.635Z,3.29
2019-04-16T05:36:47.938Z,3.32
2019-04-16T05:39:18.142Z,3.36
2019-04-16T05:41:50.484Z,3.46
2019-04-16T05:44:19.898Z,3.50
2019-04-16T05:46:49.873Z,3.61
2019-04-16T05:49:24.636Z,3.58
2019-04-16T05:51:51.611Z,3.81
2019-04-16T05:54:23.161Z,4.04
2019-04-16T05:56:57.539Z,4.24
2019-04-16T05:59:27.514Z,4.26
2019-04-16T06:01:59.050Z,4.38
2019-04-16T06:04:29.045Z,4.57
2019-04-16T06:07:02.864Z,4.76
2019-04-16T06:09:34.014Z,5.00
2019-04-16T06:12:05.954Z,4.94
2019-04-16T06:14:37.599Z,5.10
2019-04-16T06:17:33.225Z,5.27
2019-04-16T06:20:19.021Z,5.39
2019-04-16T06:23:02.751Z,5.58
2019-04-16T06:25:31.658Z,5.63
2019-04-16T06:28:25.864Z,5.74
2019-04-16T06:31:10.210Z,5.90
2019-04-16T06:33:40.699Z,6.15
2019-04-16T06:36:24.342Z,6.46
2019-04-16T06:38:58.953Z,6.57
2019-04-16T06:41:41.424Z,6.80
2019-04-16T06:44:06.909Z,6.76
2019-04-16T06:46:41.288Z,6.71
2019-04-16T06:49:27.914Z,7.06
2019-04-16T06:52:16.049Z,7.20
2019-04-16T06:54:57.117Z,7.33
2019-04-16T06:57:47.007Z,7.69
2019-04-16T07:00:27.799Z,7.57
2019-04-16T07:03:15.888Z,7.61
2019-04-16T07:06:03.947Z,7.95
2019-04-16T07:08:38.177Z,8.29
2019-04-16T07:11:10.707Z,8.50
2019-04-16T07:13:42.238Z,8.70
2019-04-16T07:16:15.135Z,8.55
2019-04-16T07:19:03.693Z,9.01
2019-04-16T07:21:36.419Z,9.13
2019-04-16T07:24:12.498Z,9.24
2019-04-16T07:26:56.644Z,9.40
2019-04-16T07:29:31.666Z,9.58
2019-04-16T07:32:20.592Z,9.64
2019-04-16T07:35:21.959Z,9.56
2019-04-16T07:37:56.765Z,9.45
2019-04-16T07:40:59.509Z,9.60
2019-04-16T07:44:10.758Z,9.62
2019-04-16T07:47:12.420Z,9.63
2019-04-16T07:49:50.141Z,9.63
2019-04-16T07:52:27.695Z,9.58
2019-04-16T07:55:17.996Z,9.67
2019-04-16T07:58:07.026Z,9.96
2019-04-16T08:00:44.941Z,9.81
2019-04-16T08:03:15.039Z,9.77
2019-04-16T08:05:46.462Z,9.88
2019-04-16T08:08:16.740Z,10.06
2019-04-16T08:10:53.050Z,10.17
2019-04-16T08:13:23.824Z,10.22
2019-04-16T08:15:57.548Z,10.39
2019-04-16T08:18:53.211Z,10.63
2019-04-16T08:21:44.668Z,10.76
2019-04-16T08:24:16.371Z,10.85
2019-04-16T08:26:46.353Z,11.06
2019-04-16T08:29:34.041Z,11.13
2019-04-16T08:32:13.102Z,11.19
2019-04-16T08:34:44.413Z,11.38
2019-04-16T08:37:32.105Z,11.23
2019-04-16T08:40:20.047Z,11.30
2019-04-16T08:42:57.001Z,11.44
2019-04-16T08:45:26.434Z,11.69
2019-04-16T08:48:18.720Z,11.77
2019-04-16T08:51:05.777Z,11.72
2019-04-16T08:53:54.764Z,12.01
2019-04-16T08:56:24.745Z,11.97
2019-04-16T08:58:58.586Z,11.99
2019-04-16T09:01:45.842Z,12.06
2019-04-16T09:04:18.855Z,12.05
2019-04-16T09:06:48.843Z,12.33
2019-04-16T09:09:28.882Z,12.52
2019-04-16T09:12:07.741Z,12.39
2019-04-16T09:14:55.918Z,12.38
2019-04-16T09:17:29.114Z,12.57
2019-04-16T09:20:05.663Z,12.73
2019-04-16T09:22:48.281Z,12.52
2019-04-16T09:25:23.804Z,12.43
2019-04-16T09:28:23.806Z,12.49
2019-04-16T09:31:10.957Z,12.28
2019-04-16T09:34:10.040Z,12.35
2019-04-16T09:37:01.837Z,12.59
2019-04-16T09:40:16.506Z,12.66
2019-04-16T09:42:59.059Z,12.76
2019-04-16T09:45:51.968Z,12.68
2019-04-16T09:48:34.453Z,12.77
2019-04-16T09:51:21.513Z,12.66
2019-04-16T09:53:51.676Z,12.70
2019-04-16T09:56:30.004Z,12.71
2019-04-16T09:59:10.939Z,12.70
2019-04-16T10:01:45.500Z,12.79
2019-04-16T10:04:19.805Z,12.75
2019-04-16T10:06:49.963Z,12.81
2019-04-16T10:09:23.743Z,12.79
2019-04-16T10:12:15.240Z,12.84
2019-04-16T10:14:49.359Z,12.77
2019-04-16T10:17:28.414Z,12.94
2019-04-16T10:19:58.395Z,12.82
2019-04-16T10:22:36.244Z,12.83
2019-04-16T10:25:23.261Z,12.80
2019-04-16T10:27:54.860Z,12.97
2019-04-16T10:30:29.786Z,12.96
2019-04-16T10:33:02.196Z,13.03
2019-04-16T10:35:38.216Z,12.97
2019-04-16T10:38:31.973Z,13.10
2019-04-16T10:41:07.960Z,12.92
2019-04-16T10:43:44.723Z,12.91
2019-04-16T10:46:33.583Z,13.13
2019-04-16T10:49:30.670Z,13.37
2019-04-16T10:52:22.299Z,13.41
2019-04-16T10:55:12.935Z,13.41
2019-04-16T10:57:50.819Z,13.56
2019-04-16T11:00:46.206Z,13.62
2019-04-16T11:03:42.289Z,13.58
2019-04-16T11:06:17.107Z,13.45
2019-04-16T11:09:10.494Z,13.39
2019-04-16T11:11:43.533Z,13.63
2019-04-16T11:14:16.368Z,13.48
2019-04-16T11:17:05.973Z,13.42
2019-04-16T11:19:59.931Z,13.46
2019-04-16T11:22:28.852Z,13.44
2019-04-16T11:24:58.839Z,13.50
2019-04-16T11:27:49.815Z,13.74
2019-04-16T11:30:40.528Z,13.49
2019-04-16T11:33:29.565Z,13.47
2019-04-16T11:35:59.651Z,13.46
2019-04-16T11:38:47.808Z,13.76
2019-04-16T11:41:36.394Z,13.79
2019-04-16T11:44:24.903Z,13.79
2019-04-16T11:47:20.423Z,13.91
2019-04-16T11:49:53.513Z,13.75
2019-04-16T11:52:29.708Z,13.53
2019-04-16T11:55:02.892Z,13.65
2019-04-16T11:57:43.673Z,13.59
2019-04-16T12:00:36.631Z,13.80
2019-04-16T12:03:08.336Z,13.80
2019-04-16T12:05:51.840Z,13.90
2019-04-16T12:08:41.172Z,13.97
2019-04-16T12:11:43.760Z,14.00
2019-04-16T12:14:30.699Z,14.27
2019-04-16T12:17:17.675Z,14.28
2019-04-16T12:20:04.169Z,14.00
2019-04-16T12:23:01.906Z,14.14
2019-04-16T12:25:36.294Z,14.34
2019-04-16T12:28:31.472Z,14.07
2019-04-16T12:31:26.616Z,14.15
2019-04-16T12:34:07.717Z,14.38
2019-04-16T12:36:50.862Z,14.35
2019-04-16T12:39:24.724Z,14.55
2019-04-16T12:41:59.743Z,14.31
2019-04-16T12:44:48.363Z,14.24
2019-04-16T12:47:46.432Z,14.26
2019-04-16T12:50:49.407Z,14.33
2019-04-16T12:53:22.671Z,14.32
2019-04-16T12:56:12.512Z,14.33
2019-04-16T12:59:22.119Z,14.42
2019-04-16T13:02:24.095Z,14.16
2019-04-16T13:05:13.132Z,14.16
2019-04-16T13:07:50.316Z,14.40
2019-04-16T13:10:39.462Z,14.34
2019-04-16T13:13:16.976Z,14.31
2019-04-16T13:15:51.195Z,14.34
2019-04-16T13:18:46.403Z,14.33
2019-04-16T13:21:20.825Z,14.39
2019-04-16T13:24:01.464Z,14.30
2019-04-16T13:26:35.651Z,14.29
2019-04-16T13:29:07.301Z,14.30
2019-04-16T13:31:38.967Z,14.39
2019-04-16T13:34:18.345Z,14.31
2019-04-16T13:36:51.913Z,14.30
2019-04-16T13:39:26.800Z,14.42
2019-04-16T13:41:58.218Z,14.58
2019-04-16T13:44:46.535Z,14.48
2019-04-16T13:47:22.476Z,14.35
2019-04-16T13:49:54.085Z,14.41
2019-04-16T13:52:36.833Z,14.46
2019-04-16T13:55:18.062Z,14.42
2019-04-16T13:58:04.480Z,14.35
2019-04-16T14:00:37.141Z,14.41
2019-04-16T14:03:08.865Z,14.42
2019-04-16T14:05:42.691Z,14.49
2019-04-16T14:08:14.659Z,14.34
2019-04-16T14:10:44.691Z,14.47
2019-04-16T14:13:17.319Z,14.44
2019-04-16T14:15:47.274Z,14.54
2019-04-16T14:18:17.252Z,14.43
2019-04-16T14:20:47.256Z,14.47
2019-04-16T14:23:23.371Z,14.43
2019-04-16T14:25:53.392Z,14.47
2019-04-16T14:28:23.490Z,14.55
2019-04-16T14:30:53.511Z,14.62
2019-04-16T14:33:25.146Z,14.59
2019-04-16T14:35:55.132Z,14.51
2019-04-16T14:38:30.003Z,14.51
2019-04-16T14:40:59.964Z,14.55
2019-04-16T14:43:31.644Z,14.50
2019-04-16T14:46:01.873Z,14.51
2019-04-16T14:48:31.992Z,14.59
2019-04-16T14:51:02.561Z,14.47
2019-04-16T14:53:34.294Z,14.52
2019-04-16T14:56:06.451Z,14.52
2019-04-16T14:58:44.342Z,14.41
2019-04-16T15:01:20.132Z,14.46
2019-04-16T15:04:00.665Z,14.54
2019-04-16T15:06:41.354Z,14.51
2019-04-16T15:09:15.990Z,14.40
2019-04-16T15:12:07.444Z,14.46
2019-04-16T15:14:40.021Z,14.49
2019-04-16T15:17:14.566Z,14.50
2019-04-16T15:20:06.984Z,14.48
2019-04-16T15:22:38.524Z,14.40
2019-04-16T15:25:28.271Z,14.40
2019-04-16T15:28:05.852Z,14.47
2019-04-16T15:30:40.393Z,14.45
2019-04-16T15:33:21.244Z,14.41
2019-04-16T15:36:01.821Z,14.37
2019-04-16T15:38:39.667Z,14.31
2019-04-16T15:41:20.577Z,14.24
2019-04-16T15:44:08.683Z,14.26
2019-04-16T15:46:49.515Z,14.25
2019-04-16T15:49:24.154Z,14.25
2019-04-16T15:52:01.758Z,14.19
2019-04-16T15:54:42.122Z,14.18
2019-04-16T16:04:37.078Z,14.12
2019-04-16T16:06:23.399Z,14.09
2019-04-16T16:09:29.251Z,13.99
2019-04-16T16:11:58.713Z,13.99
2019-04-16T16:14:33.042Z,13.93
2019-04-16T16:17:04.187Z,13.90
2019-04-16T16:19:46.699Z,13.92
2019-04-16T16:23:32.835Z,13.83
2019-04-16T16:25:42.148Z,13.73
2019-04-16T16:31:40.380Z,13.67
2019-04-16T16:34:17.937Z,13.63
2019-04-16T16:36:48.450Z,13.60
2019-04-16T16:37:54.675Z,13.72
2019-04-16T16:39:24.883Z,13.57
2019-04-16T16:44:43.182Z,13.51
2019-04-16T16:47:32.852Z,13.48
2019-04-16T16:50:07.516Z,13.45
2019-04-16T16:53:07.171Z,13.40
2019-04-16T16:55:58.301Z,13.37
2019-04-16T16:58:47.165Z,13.32
2019-04-16T17:01:37.160Z,13.31
2019-04-16T17:04:15.935Z,13.28
2019-04-16T17:06:57.641Z,13.22
2019-04-16T17:09:33.477Z,13.19
2019-04-16T17:14:01.314Z,13.16
2019-04-16T17:14:55.879Z,13.11
2019-04-16T17:17:26.898Z,13.05
2019-04-16T17:19:58.265Z,12.99
2019-04-16T17:22:36.340Z,12.96
2019-04-16T17:25:10.501Z,12.89
2019-04-16T17:27:51.537Z,12.85
2019-04-16T17:30:19.070Z,12.80
2019-04-16T17:33:02.324Z,12.72
2019-04-16T17:46:00.869Z,12.40
2019-04-16T17:48:39.019Z,12.31
2019-04-16T17:51:12.580Z,12.24
2019-04-16T17:53:47.637Z,12.18
2019-04-16T17:56:26.700Z,12.08
2019-04-16T17:59:13.512Z,12.06
2019-04-16T18:02:05.452Z,11.99
2019-04-16T18:04:38.374Z,11.89
2019-04-16T18:07:28.125Z,11.82
2019-04-16T18:10:05.239Z,11.73
2019-04-16T18:12:39.561Z,11.67
2019-04-16T18:15:32.014Z,11.65
2019-04-16T18:18:09.449Z,11.64
2019-04-16T18:21:07.008Z,11.55
2019-04-16T18:23:45.576Z,11.52
2019-04-16T18:26:19.159Z,11.39
2019-04-16T18:29:04.265Z,11.28
2019-04-16T18:31:47.129Z,11.19
2019-04-16T18:34:23.586Z,11.09
2019-04-16T18:37:13.179Z,11.07
2019-04-16T18:39:48.888Z,11.00
2019-04-16T18:42:39.289Z,10.92
2019-04-16T18:45:15.893Z,10.81
2019-04-16T18:48:02.853Z,10.71
2019-04-16T18:50:28.177Z,10.65
2019-04-16T18:53:00.202Z,10.59
2019-04-16T18:55:31.054Z,10.45
2019-04-16T18:58:03.467Z,10.39
2019-04-16T19:00:43.895Z,10.31
2019-04-16T19:03:16.392Z,10.29
2019-04-16T19:05:47.388Z,10.24
2019-04-16T19:08:18.154Z,10.20
2019-04-16T19:10:49.871Z,10.16
2019-04-16T19:13:21.504Z,10.09
2019-04-16T19:15:54.182Z,10.04
2019-04-16T19:18:26.651Z,10.01
2019-04-16T19:20:57.303Z,9.98
2019-04-16T19:23:28.792Z,9.92
2019-04-16T19:25:59.408Z,9.86
2019-04-16T19:28:31.219Z,9.78
2019-04-16T19:31:05.324Z,9.65
2019-04-16T19:33:38.280Z,9.53
2019-04-16T19:36:08.377Z,9.36
2019-04-16T19:38:40.771Z,9.21
2019-04-16T19:41:14.117Z,9.14
2019-04-16T19:43:45.903Z,9.08
2019-04-16T19:46:16.895Z,9.00
2019-04-16T19:48:47.714Z,9.02
2019-04-16T19:51:20.631Z,9.05
2019-04-16T19:53:53.559Z,8.97
2019-04-16T19:56:24.998Z,8.94
2019-04-16T19:59:02.746Z,8.88
2019-04-16T20:01:33.036Z,8.91
2019-04-16T20:04:09.721Z,8.80
2019-04-16T20:06:39.115Z,8.73
2019-04-16T20:09:10.317Z,8.60
2019-04-16T20:11:41.296Z,8.58
2019-04-16T20:14:12.519Z,8.50
2019-04-16T20:16:44.903Z,8.42
2019-04-16T20:19:16.247Z,8.42
2019-04-16T20:21:49.140Z,8.44
2019-04-16T20:24:21.509Z,8.42
2019-04-16T20:26:55.535Z,8.34
2019-04-16T20:29:29.517Z,8.16
2019-04-16T20:32:01.045Z,7.95
2019-04-16T20:34:34.760Z,7.93
2019-04-16T20:37:06.394Z,8.03
2019-04-16T20:39:40.919Z,8.11
2019-04-16T20:42:12.558Z,8.14
2019-04-16T20:44:47.922Z,8.11
2019-04-16T20:47:20.028Z,8.08
2019-04-16T20:49:52.445Z,8.09
2019-04-16T20:52:24.886Z,8.06
2019-04-16T20:54:59.370Z,8.10
2019-04-16T20:57:33.686Z,8.05
2019-04-16T21:00:11.036Z,8.01
2019-04-16T21:02:40.160Z,7.94
2019-04-16T21:05:22.017Z,7.95
2019-04-16T21:07:43.920Z,7.96
2019-04-16T21:10:13.707Z,8.01
2019-04-16T21:12:45.326Z,8.01
2019-04-16T21:15:15.461Z,7.98
2019-04-16T21:17:45.408Z,7.94
2019-04-16T21:20:19.155Z,7.86
2019-04-16T21:22:47.132Z,7.83
2019-04-16T21:25:17.122Z,7.86
2019-04-16T21:27:51.571Z,7.83
2019-04-16T21:30:21.590Z,7.83
2019-04-16T21:32:53.148Z,7.76
2019-04-16T21:35:31.964Z,7.68
2019-04-16T21:38:03.981Z,7.63
2019-04-16T21:40:33.995Z,7.62
2019-04-16T21:43:07.741Z,7.53
2019-04-16T21:45:35.754Z,7.40
2019-04-16T21:48:05.905Z,7.31
2019-04-16T21:50:35.913Z,7.31
2019-04-16T21:53:05.885Z,7.26
2019-04-16T21:55:36.200Z,7.22
2019-04-16T21:58:06.750Z,7.22
2019-04-16T22:00:38.430Z,7.22
2019-04-16T22:03:18.982Z,7.19
2019-04-16T22:05:49.064Z,7.19
2019-04-16T22:08:19.088Z,7.14
2019-04-16T22:10:49.036Z,7.07
2019-04-16T22:13:20.060Z,6.93
2019-04-16T22:15:50.198Z,6.79
2019-04-16T22:18:20.176Z,6.72
2019-04-16T22:20:50.112Z,6.62
2019-04-16T22:23:20.114Z,6.56
2019-04-16T22:25:50.091Z,6.58
2019-04-16T22:28:20.091Z,6.61
2019-04-16T22:30:51.485Z,6.54
2019-04-16T22:33:21.714Z,6.67
2019-04-16T22:35:51.692Z,6.67
2019-04-16T22:38:21.668Z,6.68
2019-04-16T22:41:02.828Z,6.66
2019-04-16T22:43:46.675Z,6.74
2019-04-16T22:46:18.219Z,6.70
2019-04-16T22:48:55.390Z,6.67
2019-04-16T22:51:25.973Z,6.70
2019-04-16T22:53:56.235Z,6.78
2019-04-16T22:56:31.058Z,6.76
2019-04-16T22:59:01.040Z,6.74
2019-04-16T23:01:45.697Z,6.81
2019-04-16T23:04:15.859Z,6.88
2019-04-16T23:06:45.930Z,6.93
2019-04-16T23:09:17.182Z,6.99
2019-04-16T23:11:48.019Z,7.01
2019-04-16T23:14:18.087Z,7.05
2019-04-16T23:16:48.176Z,7.08
2019-04-16T23:19:20.558Z,6.99
2019-04-16T23:21:50.058Z,7.05
2019-04-16T23:24:23.017Z,7.09
2019-04-16T23:26:52.016Z,7.14
2019-04-16T23:29:22.106Z,7.10
2019-04-16T23:31:55.068Z,7.07
2019-04-16T23:34:24.004Z,7.07
2019-04-16T23:36:54.081Z,7.10
2019-04-16T23:39:24.177Z,7.12
2019-04-16T23:41:54.153Z,7.09
2019-04-16T23:44:31.818Z,7.16
2019-04-16T23:47:03.365Z,7.20
2019-04-16T23:49:40.894Z,7.17
2019-04-16T23:52:12.435Z,7.18
2019-04-16T23:54:47.018Z,7.19
2019-04-16T23:57:21.594Z,7.29
